createdAt,value
2019-04-26T00:01:05.938Z,0
2019-04-26T00:02:17.097Z,0
2019-04-26T00:05:05.568Z,0
2019-04-26T00:05:17.402Z,0
2019-04-26T00:07:05.556Z,0
2019-04-26T00:07:17.389Z,0
2019-04-26T00:08:17.861Z,0
2019-04-26T00:09:16.450Z,0
2019-04-26T00:10:16.060Z,0
2019-04-26T00:11:27.138Z,0
2019-04-26T00:12:16.379Z,0
2019-04-26T00:14:16.261Z,0
2019-04-26T00:14:27.505Z,0
2019-04-26T00:15:27.052Z,0
2019-04-26T00:16:26.400Z,0
2019-04-26T00:17:25.853Z,0
2019-04-26T00:18:39.417Z,0
2019-04-26T00:19:36.509Z,0
2019-04-26T00:20:36.053Z,0
2019-04-26T00:21:35.543Z,0
2019-04-26T00:21:47.378Z,0
2019-04-26T00:22:46.767Z,0
2019-04-26T00:23:46.379Z,0
2019-04-26T00:24:45.811Z,0
2019-04-26T00:25:57.218Z,0
2019-04-26T00:26:56.849Z,0
2019-04-26T00:27:56.262Z,0
2019-04-26T00:28:55.677Z,0
2019-04-26T00:30:07.013Z,0
2019-04-26T00:31:06.407Z,0
2019-04-26T00:32:05.951Z,0
2019-04-26T00:33:17.316Z,0
2019-04-26T00:34:17.481Z,0
2019-04-26T00:35:16.502Z,0
2019-04-26T00:36:16.641Z,0
2019-04-26T00:37:27.255Z,0
2019-04-26T00:38:26.632Z,0
2019-04-26T00:39:26.073Z,0
2019-04-26T00:40:25.657Z,0
2019-04-26T00:40:37.613Z,0
2019-04-26T00:41:36.980Z,0
2019-04-26T00:42:36.433Z,0
2019-04-26T00:43:35.888Z,0
2019-04-26T00:45:35.754Z,0
2019-04-26T00:46:47.120Z,0
2019-04-26T00:47:46.464Z,0
2019-04-26T00:48:46.004Z,0
2019-04-26T00:49:46.375Z,0
2019-04-26T00:50:46.159Z,0
2019-04-26T00:51:45.683Z,0
2019-04-26T00:51:57.523Z,0
2019-04-26T00:52:56.881Z,0
2019-04-26T00:53:56.323Z,0
2019-04-26T00:54:56.752Z,0
2019-04-26T00:55:56.433Z,0
2019-04-26T00:56:55.919Z,0
2019-04-26T00:58:07.084Z,0
2019-04-26T00:59:06.570Z,0
2019-04-26T01:00:05.911Z,0
2019-04-26T01:01:05.668Z,0
2019-04-26T01:01:18.569Z,0
2019-04-26T01:02:16.892Z,0
2019-04-26T01:03:16.670Z,0
2019-04-26T01:04:17.032Z,0
2019-04-26T01:06:16.978Z,0
2019-04-26T01:07:27.120Z,0
2019-04-26T01:08:26.581Z,0
2019-04-26T01:09:26.847Z,0
2019-04-26T01:10:27.283Z,0
2019-04-26T01:11:26.692Z,0
2019-04-26T01:12:27.064Z,0
2019-04-26T01:13:27.452Z,0
2019-04-26T01:14:26.841Z,0
2019-04-26T01:15:27.204Z,0
2019-04-26T01:16:27.472Z,0
2019-04-26T01:18:27.278Z,0
2019-04-26T01:19:26.664Z,0
2019-04-26T01:20:27.152Z,0
2019-04-26T01:21:26.853Z,0
2019-04-26T01:22:26.004Z,0
2019-04-26T01:23:27.260Z,0
2019-04-26T01:24:27.284Z,0
2019-04-26T01:25:27.409Z,0
2019-04-26T01:26:27.464Z,0
2019-04-26T01:29:15.578Z,0
2019-04-26T01:29:27.984Z,0
2019-04-26T01:32:17.656Z,0
2019-04-26T01:33:16.148Z,0
2019-04-26T01:34:15.525Z,0
2019-04-26T01:34:28.247Z,0
2019-04-26T01:36:16.280Z,0
2019-04-26T01:37:15.696Z,0
2019-04-26T01:38:27.693Z,0
2019-04-26T01:39:15.416Z,0
2019-04-26T01:39:27.950Z,0
2019-04-26T01:40:26.714Z,0
2019-04-26T01:41:26.212Z,0
2019-04-26T01:42:26.357Z,0
2019-04-26T01:42:37.426Z,0
2019-04-26T01:43:36.846Z,0
2019-04-26T01:44:36.269Z,0
2019-04-26T01:45:35.661Z,0
2019-04-26T01:45:47.500Z,0
2019-04-26T01:46:46.978Z,0
2019-04-26T01:47:46.351Z,0
2019-04-26T01:48:45.834Z,0
2019-04-26T01:49:57.107Z,0
2019-04-26T01:50:56.703Z,0
2019-04-26T01:51:56.173Z,0
2019-04-26T01:52:55.559Z,0
2019-04-26T01:53:07.392Z,0
2019-04-26T01:54:06.764Z,0
2019-04-26T01:55:06.323Z,0
2019-04-26T01:56:05.633Z,0
2019-04-26T01:56:17.556Z,0
2019-04-26T01:57:16.892Z,0
2019-04-26T01:58:16.278Z,0
2019-04-26T01:59:15.650Z,0
2019-04-26T02:00:27.484Z,0
2019-04-26T02:01:27.420Z,0
2019-04-26T02:02:25.813Z,0
2019-04-26T02:03:37.212Z,0
2019-04-26T02:04:25.806Z,0
2019-04-26T02:05:37.106Z,0
2019-04-26T02:08:26.227Z,0
2019-04-26T02:08:37.329Z,0
2019-04-26T02:09:36.631Z,0
2019-04-26T02:10:47.044Z,0
2019-04-26T02:12:46.821Z,0
2019-04-26T02:13:46.337Z,0
2019-04-26T02:14:45.703Z,0
2019-04-26T02:15:57.014Z,0
2019-04-26T02:16:56.669Z,0
2019-04-26T02:17:55.999Z,0
2019-04-26T02:18:55.512Z,0
2019-04-26T02:19:07.347Z,0
2019-04-26T02:20:06.801Z,0
2019-04-26T02:21:06.189Z,0
2019-04-26T02:22:05.635Z,0
2019-04-26T02:22:17.452Z,0
2019-04-26T02:23:16.811Z,0
2019-04-26T02:24:16.228Z,0
2019-04-26T02:25:15.594Z,0
2019-04-26T02:25:28.002Z,0
2019-04-26T02:27:15.404Z,0
2019-04-26T02:27:28.255Z,0
2019-04-26T02:28:26.840Z,0
2019-04-26T02:29:26.774Z,0
2019-04-26T02:30:26.991Z,0
2019-04-26T02:32:27.130Z,0
2019-04-26T02:33:27.368Z,0
2019-04-26T02:35:27.014Z,0
2019-04-26T02:35:37.512Z,0
2019-04-26T02:37:26.944Z,0
2019-04-26T02:37:38.314Z,0
2019-04-26T02:39:26.303Z,0
2019-04-26T02:39:37.745Z,0
2019-04-26T02:40:37.526Z,0
2019-04-26T02:42:26.528Z,0
2019-04-26T02:42:38.052Z,0
2019-04-26T02:45:26.896Z,0
2019-04-26T02:45:38.209Z,0
2019-04-26T02:47:26.663Z,0
2019-04-26T02:47:39.064Z,0
2019-04-26T02:50:28.278Z,0
2019-04-26T02:50:38.339Z,0
2019-04-26T02:53:25.470Z,0
2019-04-26T02:53:38.681Z,0
2019-04-26T02:56:25.569Z,0
2019-04-26T02:56:38.176Z,0
2019-04-26T02:58:25.447Z,0
2019-04-26T02:58:39.055Z,0
2019-04-26T03:00:26.411Z,0
2019-04-26T03:01:25.806Z,0
2019-04-26T03:03:25.704Z,0
2019-04-26T03:06:25.535Z,0
2019-04-26T03:06:39.050Z,0
2019-04-26T03:07:38.721Z,0
2019-04-26T03:08:37.683Z,0
2019-04-26T03:09:36.996Z,0
2019-04-26T03:11:37.027Z,0
2019-04-26T03:13:36.743Z,0
2019-04-26T03:13:47.289Z,0
2019-04-26T03:15:38.818Z,0
2019-04-26T03:16:26.899Z,0
2019-04-26T03:17:16.202Z,0
2019-04-26T03:18:16.917Z,0
2019-04-26T03:19:17.099Z,0
2019-04-26T03:20:16.562Z,0
2019-04-26T03:21:16.137Z,0
2019-04-26T03:22:15.551Z,0
2019-04-26T03:22:27.403Z,0
2019-04-26T03:23:41.267Z,0
2019-04-26T03:24:26.274Z,0
2019-04-26T03:25:25.630Z,0
2019-04-26T03:25:38.721Z,0
2019-04-26T03:26:38.652Z,0
2019-04-26T03:27:37.787Z,0
2019-04-26T03:28:37.562Z,0
2019-04-26T03:29:37.385Z,0
2019-04-26T03:29:47.336Z,0
2019-04-26T03:32:40.274Z,0
2019-04-26T03:32:50.624Z,0
2019-04-26T03:34:40.148Z,0
2019-04-26T03:35:40.923Z,0
2019-04-26T03:35:56.265Z,0
2019-04-26T03:38:37.427Z,0
2019-04-26T03:38:47.475Z,0
2019-04-26T03:40:36.683Z,0
2019-04-26T03:40:47.283Z,0
2019-04-26T03:43:36.774Z,0
2019-04-26T03:43:47.384Z,0
2019-04-26T03:46:36.998Z,0
2019-04-26T03:46:47.488Z,0
2019-04-26T03:49:37.371Z,0
2019-04-26T03:51:37.461Z,0
2019-04-26T03:54:37.212Z,0
2019-04-26T03:56:36.402Z,0
2019-04-26T03:56:47.401Z,0
2019-04-26T03:58:36.515Z,0
2019-04-26T03:58:47.251Z,0
2019-04-26T04:01:37.211Z,0
2019-04-26T04:03:38.100Z,0
2019-04-26T04:04:37.580Z,0
2019-04-26T04:06:49.792Z,0
2019-04-26T04:07:43.543Z,0
2019-04-26T04:08:38.263Z,0
2019-04-26T04:09:37.531Z,0
2019-04-26T04:10:38.042Z,0
2019-04-26T04:11:26.109Z,0
2019-04-26T04:12:25.536Z,0
2019-04-26T04:12:38.291Z,0
2019-04-26T04:13:38.761Z,0
2019-04-26T04:15:37.869Z,0
2019-04-26T04:15:48.473Z,0
2019-04-26T04:16:36.778Z,0
2019-04-26T04:17:39.509Z,0
2019-04-26T04:18:25.727Z,0
2019-04-26T04:19:25.824Z,0
2019-04-26T04:20:25.568Z,0
2019-04-26T04:20:38.885Z,0
2019-04-26T04:21:37.458Z,0
2019-04-26T04:22:37.881Z,0
2019-04-26T04:23:35.672Z,0
2019-04-26T04:23:48.749Z,0
2019-04-26T04:24:35.962Z,0
2019-04-26T04:26:35.630Z,0
2019-04-26T04:26:48.402Z,0
2019-04-26T04:28:35.404Z,0
2019-04-26T04:28:48.201Z,0
2019-04-26T04:31:35.650Z,5.625
2019-04-26T04:31:48.115Z,5.625
2019-04-26T04:33:35.545Z,5.625
2019-04-26T04:33:49.110Z,5.625
2019-04-26T04:34:48.071Z,5.625
2019-04-26T04:35:47.819Z,5.625
2019-04-26T04:36:46.825Z,5.625
2019-04-26T04:36:57.392Z,5.625
2019-04-26T04:39:46.334Z,11.25
2019-04-26T04:39:57.489Z,11.25
2019-04-26T04:40:57.060Z,11.25
2019-04-26T04:41:56.373Z,11.25
2019-04-26T04:42:56.890Z,11.25
2019-04-26T04:43:57.341Z,11.25
2019-04-26T04:44:56.815Z,11.25
2019-04-26T04:45:57.284Z,11.25
2019-04-26T04:47:47.828Z,11.25
2019-04-26T04:48:46.852Z,11.25
2019-04-26T04:48:57.344Z,11.25
2019-04-26T04:51:46.666Z,16.875
2019-04-26T04:53:46.460Z,16.875
2019-04-26T04:53:57.492Z,16.875
2019-04-26T04:55:57.256Z,16.875
2019-04-26T04:56:45.778Z,11.25
2019-04-26T04:59:46.092Z,11.25
2019-04-26T05:00:47.157Z,11.25
2019-04-26T05:01:46.248Z,11.25
2019-04-26T05:01:57.447Z,11.25
2019-04-26T05:02:56.808Z,11.25
2019-04-26T05:03:56.325Z,11.25
2019-04-26T05:04:55.721Z,11.25
2019-04-26T05:06:56.500Z,11.25
2019-04-26T05:08:06.269Z,11.25
2019-04-26T05:08:57.301Z,11.25
2019-04-26T05:09:56.901Z,11.25
2019-04-26T05:10:57.355Z,11.25
2019-04-26T05:11:56.799Z,11.25
2019-04-26T05:12:56.247Z,5.625
2019-04-26T05:13:55.608Z,5.625
2019-04-26T05:14:07.520Z,5.625
2019-04-26T05:15:06.887Z,5.625
2019-04-26T05:16:06.254Z,11.25
2019-04-26T05:17:05.859Z,11.25
2019-04-26T05:18:17.103Z,11.25
2019-04-26T05:19:16.561Z,11.25
2019-04-26T05:20:16.007Z,5.625
2019-04-26T05:21:27.236Z,5.625
2019-04-26T05:22:26.628Z,5.625
2019-04-26T05:23:25.995Z,5.625
2019-04-26T05:24:25.458Z,11.25
2019-04-26T05:24:37.302Z,11.25
2019-04-26T05:25:25.933Z,11.25
2019-04-26T05:26:37.149Z,11.25
2019-04-26T05:27:36.597Z,11.25
2019-04-26T05:28:36.064Z,5.625
2019-04-26T05:29:35.540Z,5.625
2019-04-26T05:29:47.824Z,5.625
2019-04-26T05:30:47.799Z,5.625
2019-04-26T05:32:47.090Z,5.625
2019-04-26T05:32:57.394Z,5.625
2019-04-26T05:35:46.220Z,11.25
2019-04-26T05:35:57.538Z,11.25
2019-04-26T05:37:46.707Z,11.25
2019-04-26T05:38:45.652Z,11.25
2019-04-26T05:39:57.421Z,11.25
2019-04-26T05:40:57.700Z,11.25
2019-04-26T05:41:57.841Z,11.25
2019-04-26T05:42:57.992Z,16.875
2019-04-26T05:43:57.977Z,16.875
2019-04-26T05:44:57.344Z,16.875
2019-04-26T05:45:56.631Z,11.25
2019-04-26T05:46:56.123Z,16.875
2019-04-26T05:48:07.901Z,16.875
2019-04-26T05:48:11.385Z,16.875
2019-04-26T05:50:06.886Z,16.875
2019-04-26T05:51:06.250Z,22.5
2019-04-26T05:52:05.706Z,22.5
2019-04-26T05:53:17.039Z,22.5
2019-04-26T05:54:16.722Z,22.5
2019-04-26T05:55:16.151Z,22.5
2019-04-26T05:56:15.451Z,22.5
2019-04-26T05:56:27.286Z,22.5
2019-04-26T05:57:15.882Z,22.5
2019-04-26T05:58:27.052Z,22.5
2019-04-26T05:59:26.535Z,22.5
2019-04-26T06:00:25.862Z,22.5
2019-04-26T06:01:37.171Z,28.125
2019-04-26T06:02:36.770Z,28.125
2019-04-26T06:03:36.131Z,28.125
2019-04-26T06:04:35.554Z,28.125
2019-04-26T06:04:47.458Z,28.125
2019-04-26T06:05:46.877Z,28.125
2019-04-26T06:06:46.348Z,28.125
2019-04-26T06:07:45.775Z,28.125
2019-04-26T06:09:45.639Z,28.125
2019-04-26T06:09:58.558Z,28.125
2019-04-26T06:10:57.814Z,22.5
2019-04-26T06:11:56.655Z,22.5
2019-04-26T06:12:56.584Z,22.5
2019-04-26T06:13:57.739Z,16.875
2019-04-26T06:14:56.955Z,16.875
2019-04-26T06:15:57.983Z,16.875
2019-04-26T06:16:56.933Z,16.875
2019-04-26T06:17:55.830Z,16.875
2019-04-26T06:19:07.058Z,16.875
2019-04-26T06:20:06.517Z,16.875
2019-04-26T06:21:06.928Z,16.875
2019-04-26T06:22:06.469Z,16.875
2019-04-26T06:24:07.203Z,16.875
2019-04-26T06:27:07.821Z,22.5
2019-04-26T06:27:13.108Z,22.5
2019-04-26T06:29:07.299Z,22.5
2019-04-26T06:30:06.914Z,22.5
2019-04-26T06:31:06.343Z,22.5
2019-04-26T06:32:05.713Z,22.5
2019-04-26T06:33:17.039Z,22.5
2019-04-26T06:34:16.504Z,28.125
2019-04-26T06:35:15.892Z,28.125
2019-04-26T06:36:27.261Z,28.125
2019-04-26T06:37:26.760Z,28.125
2019-04-26T06:38:26.217Z,28.125
2019-04-26T06:39:25.741Z,28.125
2019-04-26T06:40:41.905Z,28.125
2019-04-26T06:41:36.517Z,28.125
2019-04-26T06:42:36.140Z,28.125
2019-04-26T06:43:35.604Z,28.125
2019-04-26T06:44:46.881Z,28.125
2019-04-26T06:45:46.390Z,28.125
2019-04-26T06:46:47.476Z,28.125
2019-04-26T06:47:57.160Z,28.125
2019-04-26T06:48:57.068Z,33.75
2019-04-26T06:49:57.720Z,33.75
2019-04-26T06:50:58.370Z,33.75
2019-04-26T06:51:57.083Z,33.75
2019-04-26T06:52:56.706Z,39.375
2019-04-26T06:53:57.199Z,39.375
2019-04-26T06:54:56.379Z,39.375
2019-04-26T06:55:56.468Z,45
2019-04-26T06:56:07.480Z,45
2019-04-26T06:58:55.779Z,45
2019-04-26T07:00:07.033Z,39.375
2019-04-26T07:01:06.631Z,39.375
2019-04-26T07:02:08.184Z,39.375
2019-04-26T07:03:07.742Z,39.375
2019-04-26T07:04:07.222Z,39.375
2019-04-26T07:05:06.951Z,39.375
2019-04-26T07:06:06.582Z,39.375
2019-04-26T07:07:05.685Z,39.375
2019-04-26T07:08:17.119Z,39.375
2019-04-26T07:09:16.686Z,33.75
2019-04-26T07:10:16.177Z,33.75
2019-04-26T07:11:16.596Z,33.75
2019-04-26T07:12:16.947Z,28.125
2019-04-26T07:13:17.431Z,28.125
2019-04-26T07:14:16.950Z,28.125
2019-04-26T07:15:27.908Z,28.125
2019-04-26T07:17:05.495Z,28.125
2019-04-26T07:17:17.338Z,28.125
2019-04-26T07:18:17.015Z,28.125
2019-04-26T07:19:16.639Z,28.125
2019-04-26T07:20:17.126Z,28.125
2019-04-26T07:21:16.709Z,33.75
2019-04-26T07:22:16.198Z,33.75
2019-04-26T07:23:15.674Z,33.75
2019-04-26T07:23:27.593Z,33.75
2019-04-26T07:24:27.045Z,33.75
2019-04-26T07:25:27.526Z,33.75
2019-04-26T07:26:26.944Z,33.75
2019-04-26T07:27:26.329Z,33.75
2019-04-26T07:28:25.832Z,39.375
2019-04-26T07:29:37.168Z,39.375
2019-04-26T07:30:36.521Z,39.375
2019-04-26T07:31:37.313Z,39.375
2019-04-26T07:32:36.660Z,39.375
2019-04-26T07:33:36.059Z,39.375
2019-04-26T07:34:35.782Z,45
2019-04-26T07:35:46.975Z,45
2019-04-26T07:36:46.584Z,45
2019-04-26T07:37:46.184Z,50.625
2019-04-26T07:38:45.553Z,56.25
2019-04-26T07:39:09.007Z,56.25
2019-04-26T07:39:56.871Z,56.25
2019-04-26T07:40:56.585Z,56.25
2019-04-26T07:41:55.987Z,50.625
2019-04-26T07:42:55.501Z,45
2019-04-26T07:43:08.152Z,45
2019-04-26T07:44:07.637Z,39.375
2019-04-26T07:45:07.482Z,39.375
2019-04-26T07:46:05.877Z,39.375
2019-04-26T07:48:05.638Z,39.375
2019-04-26T07:48:17.497Z,39.375
2019-04-26T07:49:16.960Z,33.75
2019-04-26T07:50:16.387Z,28.125
2019-04-26T07:51:15.788Z,28.125
2019-04-26T07:52:16.173Z,28.125
2019-04-26T07:53:15.520Z,28.125
2019-04-26T07:53:27.386Z,28.125
2019-04-26T07:54:26.695Z,33.75
2019-04-26T07:55:26.209Z,33.75
2019-04-26T07:56:25.910Z,33.75
2019-04-26T07:57:37.237Z,39.375
2019-04-26T07:58:36.672Z,39.375
2019-04-26T07:59:36.111Z,39.375
2019-04-26T08:01:35.877Z,39.375
2019-04-26T08:02:47.108Z,39.375
2019-04-26T08:03:46.639Z,39.375
2019-04-26T08:04:45.955Z,39.375
2019-04-26T08:05:45.410Z,39.375
2019-04-26T08:05:57.256Z,39.375
2019-04-26T08:06:56.722Z,33.75
2019-04-26T08:07:56.191Z,39.375
2019-04-26T08:08:55.605Z,39.375
2019-04-26T08:09:07.582Z,45
2019-04-26T08:11:07.216Z,56.25
2019-04-26T08:12:07.918Z,61.875
2019-04-26T08:13:07.957Z,61.875
2019-04-26T08:14:06.716Z,61.875
2019-04-26T08:15:06.109Z,61.875
2019-04-26T08:17:06.523Z,56.25
2019-04-26T08:18:17.049Z,50.625
2019-04-26T08:19:16.519Z,50.625
2019-04-26T08:20:16.921Z,50.625
2019-04-26T08:21:18.474Z,50.625
2019-04-26T08:24:07.897Z,50.625
2019-04-26T08:25:06.829Z,50.625
2019-04-26T08:26:06.452Z,50.625
2019-04-26T08:28:05.831Z,50.625
2019-04-26T08:28:17.496Z,50.625
2019-04-26T08:30:08.145Z,56.25
2019-04-26T08:31:07.287Z,61.875
2019-04-26T08:31:19.967Z,61.875
2019-04-26T08:33:06.347Z,56.25
2019-04-26T08:33:18.138Z,56.25
2019-04-26T08:35:06.695Z,50.625
2019-04-26T08:37:07.738Z,50.625
2019-04-26T08:38:13.452Z,45
2019-04-26T08:39:05.932Z,45
2019-04-26T08:40:25.426Z,45
2019-04-26T08:43:06.957Z,45
2019-04-26T08:44:55.826Z,45
2019-04-26T08:46:03.005Z,39.375
2019-04-26T08:46:56.992Z,39.375
2019-04-26T08:48:07.889Z,39.375
2019-04-26T08:49:08.300Z,39.375
2019-04-26T08:50:08.670Z,39.375
2019-04-26T08:51:06.274Z,39.375
2019-04-26T08:52:14.102Z,39.375
2019-04-26T08:53:07.458Z,45
2019-04-26T08:54:06.713Z,45
2019-04-26T08:55:06.142Z,45
2019-04-26T08:56:05.533Z,45
2019-04-26T08:56:17.448Z,45
2019-04-26T08:57:16.818Z,45
2019-04-26T08:58:16.368Z,45
2019-04-26T08:59:15.787Z,45
2019-04-26T09:00:27.042Z,45
2019-04-26T09:01:26.567Z,45
2019-04-26T09:02:26.148Z,45
2019-04-26T09:03:25.515Z,45
2019-04-26T09:03:37.357Z,45
2019-04-26T09:04:36.830Z,45
2019-04-26T09:05:36.381Z,45
2019-04-26T09:06:35.868Z,50.625
2019-04-26T09:07:47.184Z,50.625
2019-04-26T09:08:47.521Z,50.625
2019-04-26T09:09:56.648Z,50.625
2019-04-26T09:10:47.321Z,56.25
2019-04-26T09:11:58.847Z,56.25
2019-04-26T09:12:46.046Z,50.625
2019-04-26T09:13:45.435Z,50.625
2019-04-26T09:13:57.280Z,50.625
2019-04-26T09:14:56.639Z,50.625
2019-04-26T09:15:56.145Z,50.625
2019-04-26T09:16:56.546Z,50.625
2019-04-26T09:17:56.018Z,50.625
2019-04-26T09:18:59.517Z,45
2019-04-26T09:19:58.044Z,45
2019-04-26T09:20:09.339Z,45
2019-04-26T09:21:06.883Z,45
2019-04-26T09:22:13.074Z,39.375
2019-04-26T09:23:56.489Z,39.375
2019-04-26T09:24:59.249Z,39.375
2019-04-26T09:26:56.801Z,50.625
2019-04-26T09:27:58.859Z,56.25
2019-04-26T09:28:56.497Z,56.25
2019-04-26T09:30:56.470Z,61.875
2019-04-26T09:31:55.872Z,67.5
2019-04-26T09:33:55.572Z,73.125
2019-04-26T09:34:10.351Z,73.125
2019-04-26T09:35:06.835Z,73.125
2019-04-26T09:36:06.248Z,67.5
2019-04-26T09:37:05.502Z,61.875
2019-04-26T09:37:17.420Z,61.875
2019-04-26T09:38:16.931Z,56.25
2019-04-26T09:39:17.501Z,56.25
2019-04-26T09:41:05.483Z,50.625
2019-04-26T09:41:17.385Z,50.625
2019-04-26T09:44:06.659Z,61.875
2019-04-26T09:45:06.090Z,67.5
2019-04-26T09:46:05.611Z,78.75
2019-04-26T09:46:17.449Z,78.75
2019-04-26T09:47:16.747Z,78.75
2019-04-26T09:48:16.234Z,78.75
2019-04-26T09:49:16.643Z,78.75
2019-04-26T09:50:17.018Z,84.375
2019-04-26T09:51:15.750Z,84.375
2019-04-26T09:52:27.076Z,84.375
2019-04-26T09:53:26.542Z,84.375
2019-04-26T09:54:26.047Z,78.75
2019-04-26T09:55:34.991Z,78.75
2019-04-26T09:55:37.292Z,84.375
2019-04-26T09:56:36.818Z,78.75
2019-04-26T09:57:36.360Z,78.75
2019-04-26T09:58:35.790Z,78.75
2019-04-26T10:00:35.528Z,73.125
2019-04-26T10:00:48.411Z,73.125
2019-04-26T10:01:46.862Z,78.75
2019-04-26T10:02:46.224Z,73.125
2019-04-26T10:03:45.624Z,73.125
2019-04-26T10:03:57.497Z,73.125
2019-04-26T10:04:56.941Z,73.125
2019-04-26T10:05:57.068Z,78.75
2019-04-26T10:06:55.863Z,78.75
2019-04-26T10:08:08.213Z,78.75
2019-04-26T10:09:06.543Z,78.75
2019-04-26T10:10:55.413Z,78.75
2019-04-26T10:11:09.541Z,78.75
2019-04-26T10:12:06.731Z,84.375
2019-04-26T10:13:06.261Z,84.375
2019-04-26T10:14:05.577Z,90
2019-04-26T10:14:17.476Z,90
2019-04-26T10:15:16.894Z,90
2019-04-26T10:16:16.334Z,84.375
2019-04-26T10:17:17.383Z,84.375
2019-04-26T10:17:27.479Z,84.375
2019-04-26T10:18:20.253Z,84.375
2019-04-26T10:19:16.557Z,84.375
2019-04-26T10:20:15.994Z,90
2019-04-26T10:21:15.406Z,90
2019-04-26T10:21:27.240Z,95.625
2019-04-26T10:22:26.705Z,95.625
2019-04-26T10:23:26.187Z,95.625
2019-04-26T10:24:25.503Z,95.625
2019-04-26T10:24:37.362Z,95.625
2019-04-26T10:27:25.581Z,90
2019-04-26T10:27:40.619Z,90
2019-04-26T10:28:36.832Z,90
2019-04-26T10:29:36.197Z,84.375
2019-04-26T10:30:38.236Z,84.375
2019-04-26T10:30:47.487Z,84.375
2019-04-26T10:31:47.516Z,84.375
2019-04-26T10:32:46.205Z,73.125
2019-04-26T10:33:45.603Z,73.125
2019-04-26T10:33:57.465Z,73.125
2019-04-26T10:35:57.849Z,78.75
2019-04-26T10:36:57.019Z,78.75
2019-04-26T10:37:56.868Z,78.75
2019-04-26T10:38:58.330Z,78.75
2019-04-26T10:39:55.934Z,67.5
2019-04-26T10:41:07.233Z,56.25
2019-04-26T10:42:06.563Z,56.25
2019-04-26T10:43:06.086Z,56.25
2019-04-26T10:44:05.456Z,50.625
2019-04-26T10:44:17.331Z,50.625
2019-04-26T10:46:17.032Z,33.75
2019-04-26T10:47:16.580Z,33.75
2019-04-26T10:48:16.934Z,33.75
2019-04-26T10:49:20.373Z,33.75
2019-04-26T10:50:16.831Z,39.375
2019-04-26T10:51:17.425Z,45
2019-04-26T10:52:17.068Z,50.625
2019-04-26T10:53:16.400Z,67.5
2019-04-26T10:54:16.784Z,73.125
2019-04-26T10:55:17.422Z,78.75
2019-04-26T10:56:15.511Z,78.75
2019-04-26T10:56:27.403Z,78.75
2019-04-26T10:57:26.779Z,84.375
2019-04-26T10:58:26.172Z,84.375
2019-04-26T10:59:25.599Z,84.375
2019-04-26T10:59:39.694Z,84.375
2019-04-26T11:00:36.781Z,84.375
2019-04-26T11:01:36.197Z,84.375
2019-04-26T11:02:35.560Z,78.75
2019-04-26T11:02:47.397Z,78.75
2019-04-26T11:03:46.696Z,78.75
2019-04-26T11:04:47.264Z,78.75
2019-04-26T11:05:49.258Z,73.125
2019-04-26T11:06:46.202Z,67.5
2019-04-26T11:07:45.477Z,56.25
2019-04-26T11:07:57.309Z,56.25
2019-04-26T11:08:56.859Z,50.625
2019-04-26T11:09:56.216Z,45
2019-04-26T11:10:56.651Z,39.375
2019-04-26T11:11:56.035Z,45
2019-04-26T11:12:56.627Z,45
2019-04-26T11:13:57.482Z,50.625
2019-04-26T11:15:07.222Z,56.25
2019-04-26T11:16:07.289Z,56.25
2019-04-26T11:17:06.060Z,56.25
2019-04-26T11:18:19.354Z,56.25
2019-04-26T11:19:16.659Z,56.25
2019-04-26T11:20:17.036Z,56.25
2019-04-26T11:21:20.685Z,56.25
2019-04-26T11:22:28.267Z,56.25
2019-04-26T11:23:26.965Z,56.25
2019-04-26T11:24:27.299Z,61.875
2019-04-26T11:25:28.152Z,61.875
2019-04-26T11:26:26.131Z,61.875
2019-04-26T11:27:25.573Z,61.875
2019-04-26T11:27:40.045Z,61.875
2019-04-26T11:28:36.875Z,67.5
2019-04-26T11:29:28.715Z,73.125
2019-04-26T11:29:37.411Z,78.75
2019-04-26T11:30:36.781Z,84.375
2019-04-26T11:31:37.127Z,90
2019-04-26T11:32:37.980Z,90
2019-04-26T11:33:44.597Z,90
2019-04-26T11:34:36.229Z,84.375
2019-04-26T11:36:37.498Z,95.625
2019-04-26T11:37:36.359Z,95.625
2019-04-26T11:38:36.656Z,84.375
2019-04-26T11:39:40.345Z,73.125
2019-04-26T11:40:36.592Z,61.875
2019-04-26T11:41:37.505Z,61.875
2019-04-26T11:42:47.346Z,61.875
2019-04-26T11:43:35.505Z,56.25
2019-04-26T11:43:48.969Z,56.25
2019-04-26T11:44:46.856Z,56.25
2019-04-26T11:45:49.249Z,61.875
2019-04-26T11:46:46.727Z,67.5
2019-04-26T11:47:55.715Z,73.125
2019-04-26T11:48:45.423Z,78.75
2019-04-26T11:48:58.999Z,78.75
2019-04-26T11:50:57.140Z,78.75
2019-04-26T11:51:58.471Z,78.75
2019-04-26T11:52:56.015Z,73.125
2019-04-26T11:54:07.215Z,61.875
2019-04-26T11:54:56.232Z,50.625
2019-04-26T11:57:08.115Z,39.375
2019-04-26T11:58:06.517Z,45
2019-04-26T11:59:05.960Z,45
2019-04-26T12:00:17.226Z,50.625
2019-04-26T12:01:16.810Z,61.875
2019-04-26T12:02:17.233Z,67.5
2019-04-26T12:03:15.760Z,67.5
2019-04-26T12:04:26.973Z,61.875
2019-04-26T12:05:26.417Z,61.875
2019-04-26T12:06:25.872Z,67.5
2019-04-26T12:07:37.160Z,84.375
2019-04-26T12:08:36.630Z,101.25
2019-04-26T12:09:46.894Z,112.5
2019-04-26T12:10:46.353Z,123.75
2019-04-26T12:11:49.575Z,129.375
2019-04-26T12:13:45.620Z,140.625
2019-04-26T12:13:59.306Z,140.625
2019-04-26T12:14:56.846Z,140.625
2019-04-26T12:15:56.300Z,146.25
2019-04-26T12:17:00.875Z,151.875
2019-04-26T12:17:58.522Z,163.125
2019-04-26T12:18:56.742Z,163.125
2019-04-26T12:19:57.278Z,163.125
2019-04-26T12:20:57.052Z,168.75
2019-04-26T12:21:56.011Z,168.75
2019-04-26T12:22:55.463Z,163.125
2019-04-26T12:23:07.299Z,163.125
2019-04-26T12:24:06.776Z,180
2019-04-26T12:25:07.111Z,180
2019-04-26T12:26:05.690Z,168.75
2019-04-26T12:26:21.440Z,168.75
2019-04-26T12:28:17.251Z,135
2019-04-26T12:30:16.941Z,146.25
2019-04-26T12:31:16.453Z,151.875
2019-04-26T12:32:17.239Z,163.125
2019-04-26T12:33:27.118Z,151.875
2019-04-26T12:35:26.898Z,140.625
2019-04-26T12:36:26.324Z,140.625
2019-04-26T12:37:26.840Z,129.375
2019-04-26T12:38:28.432Z,129.375
2019-04-26T12:39:25.853Z,123.75
2019-04-26T12:40:37.125Z,118.125
2019-04-26T12:41:40.117Z,118.125
2019-04-26T12:42:36.813Z,118.125
2019-04-26T12:43:36.252Z,112.5
2019-04-26T12:44:36.362Z,106.875
2019-04-26T12:45:47.335Z,106.875
2019-04-26T12:46:46.344Z,112.5
2019-04-26T12:47:46.862Z,118.125
2019-04-26T12:48:49.743Z,118.125
2019-04-26T12:49:45.764Z,112.5
2019-04-26T12:50:57.075Z,112.5
2019-04-26T12:51:56.669Z,106.875
2019-04-26T12:52:57.327Z,101.25
2019-04-26T12:53:55.501Z,106.875
2019-04-26T12:54:08.144Z,101.25
2019-04-26T12:55:06.771Z,101.25
2019-04-26T12:56:07.230Z,101.25
2019-04-26T12:57:07.003Z,95.625
2019-04-26T12:58:06.154Z,95.625
2019-04-26T12:59:05.624Z,95.625
2019-04-26T12:59:17.483Z,95.625
2019-04-26T13:00:17.072Z,95.625
2019-04-26T13:01:17.418Z,95.625
2019-04-26T13:02:20.746Z,95.625
2019-04-26T13:03:20.318Z,95.625
2019-04-26T13:04:16.834Z,95.625
2019-04-26T13:05:18.857Z,90
2019-04-26T13:06:15.514Z,90
2019-04-26T13:06:27.686Z,90
2019-04-26T13:08:26.177Z,95.625
2019-04-26T13:09:26.428Z,95.625
2019-04-26T13:09:37.312Z,95.625
2019-04-26T13:10:36.904Z,90
2019-04-26T13:11:48.381Z,84.375
2019-04-26T13:12:35.425Z,84.375
2019-04-26T13:12:47.323Z,78.75
2019-04-26T13:13:46.804Z,78.75
2019-04-26T13:14:47.108Z,78.75
2019-04-26T13:15:50.280Z,78.75
2019-04-26T13:16:57.136Z,78.75
2019-04-26T13:17:56.111Z,73.125
2019-04-26T13:18:56.517Z,73.125
2019-04-26T13:19:56.985Z,73.125
2019-04-26T13:20:58.451Z,73.125
2019-04-26T13:21:55.715Z,73.125
2019-04-26T13:23:06.933Z,78.75
2019-04-26T13:24:06.389Z,78.75
2019-04-26T13:25:10.973Z,73.125
2019-04-26T13:26:06.290Z,73.125
2019-04-26T13:27:10.455Z,78.75
2019-04-26T13:28:06.115Z,84.375
2019-04-26T13:29:06.635Z,90
2019-04-26T13:30:10.577Z,95.625
2019-04-26T13:31:06.573Z,101.25
2019-04-26T13:32:06.022Z,101.25
2019-04-26T13:34:06.677Z,101.25
2019-04-26T13:35:07.054Z,106.875
2019-04-26T13:36:06.622Z,112.5
2019-04-26T13:37:07.282Z,118.125
2019-04-26T13:38:08.607Z,123.75
2019-04-26T13:39:06.268Z,135
2019-04-26T13:40:05.845Z,135
2019-04-26T13:41:17.111Z,140.625
2019-04-26T13:42:18.643Z,146.25
2019-04-26T13:43:17.055Z,151.875
2019-04-26T13:44:16.629Z,151.875
2019-04-26T13:45:16.033Z,168.75
2019-04-26T13:46:15.445Z,157.5
2019-04-26T13:46:27.275Z,157.5
2019-04-26T13:47:26.665Z,146.25
2019-04-26T13:48:27.090Z,146.25
2019-04-26T13:49:27.462Z,140.625
2019-04-26T13:50:28.247Z,135